Time;durP1;ratioP1;P1;durP2;ratioP2;P2;SDS_P1;SDS_P2;PMS_P1;PMS_P2;Temp;Humidity;BMP_temperature;BMP_pressure;BME280_temperature;BME280_humidity;BME280_pressure;Samples;Min_cycle;Max_cycle;Signal;HPM_P1;HPM_P2
2024/01/18 00:01:40;;;;;;;18.00;13.03;;;;;;;;;;5004647;28;20478;-85
2024/01/18 00:04:09;;;;;;;20.63;12.70;;;;;;;;;;5001663;28;20478;-86
2024/01/18 00:06:36;;;;;;;18.30;11.60;;;;;;;;;;4998888;28;20464;-84
2024/01/18 00:09:03;;;;;;;14.20;10.67;;;;;;;;;;5001373;28;20593;-87
2024/01/18 00:11:30;;;;;;;21.17;13.07;;;;;;;;;;4999823;28;20468;-84
2024/01/18 00:13:58;;;;;;;17.50;12.20;;;;;;;;;;5002468;28;20502;-85
2024/01/18 00:16:28;;;;;;;15.10;11.00;;;;;;;;;;5022270;28;20479;-86
2024/01/18 00:18:55;;;;;;;20.67;12.70;;;;;;;;;;5011374;28;21003;-84
2024/01/18 00:21:23;;;;;;;20.20;12.23;;;;;;;;;;5009773;28;20945;-85
2024/01/18 00:23:50;;;;;;;18.43;12.90;;;;;;;;;;4993171;28;20559;-84
2024/01/18 00:26:17;;;;;;;21.63;13.73;;;;;;;;;;4997954;28;20443;-85
2024/01/18 00:28:44;;;;;;;21.13;11.73;;;;;;;;;;5010972;28;20464;-86
2024/01/18 00:31:11;;;;;;;19.50;11.93;;;;;;;;;;5003889;28;20477;-87
2024/01/18 00:33:39;;;;;;;16.47;11.60;;;;;;;;;;4998674;28;20475;-87
2024/01/18 00:36:06;;;;;;;15.67;11.63;;;;;;;;;;4998632;28;20465;-87
2024/01/18 00:38:34;;;;;;;19.13;12.70;;;;;;;;;;4997283;28;20455;-87
2024/01/18 00:41:01;;;;;;;17.00;11.20;;;;;;;;;;4991387;28;20462;-84
2024/01/18 00:43:28;;;;;;;17.80;11.93;;;;;;;;;;4995863;28;20470;-86
2024/01/18 00:45:55;;;;;;;22.73;11.93;;;;;;;;;;4994184;28;20466;-85
2024/01/18 00:48:23;;;;;;;26.17;12.97;;;;;;;;;;5001755;28;20458;-85
2024/01/18 00:50:52;;;;;;;16.40;11.80;;;;;;;;;;4995053;28;20542;-85
2024/01/18 00:53:19;;;;;;;18.90;11.70;;;;;;;;;;5010576;28;20873;-85
2024/01/18 00:55:49;;;;;;;17.70;11.97;;;;;;;;;;4994501;28;20447;-84
2024/01/18 00:58:17;;;;;;;18.83;12.20;;;;;;;;;;4991711;28;20898;-83
2024/01/18 01:00:44;;;;;;;17.53;11.60;;;;;;;;;;5010925;28;20459;-85
2024/01/18 01:03:11;;;;;;;18.10;12.53;;;;;;;;;;4991159;28;20710;-84
2024/01/18 01:05:38;;;;;;;14.93;10.30;;;;;;;;;;4993313;28;20487;-85
2024/01/18 01:08:05;;;;;;;18.67;11.37;;;;;;;;;;4999783;28;20448;-85
2024/01/18 01:10:32;;;;;;;16.57;11.43;;;;;;;;;;5018126;28;20531;-86
2024/01/18 01:13:00;;;;;;;19.00;11.57;;;;;;;;;;4998694;28;20491;-85
2024/01/18 01:15:27;;;;;;;19.53;11.60;;;;;;;;;;4998749;28;20453;-84
2024/01/18 01:18:01;;;;;;;17.20;12.10;;;;;;;;;;4998593;28;20471;-85
2024/01/18 01:20:29;;;;;;;22.80;12.47;;;;;;;;;;4998884;28;20459;-84
2024/01/18 01:22:56;;;;;;;17.70;11.40;;;;;;;;;;4985472;28;20454;-84
2024/01/18 01:25:23;;;;;;;16.30;12.10;;;;;;;;;;4999279;28;20535;-85
2024/01/18 01:27:50;;;;;;;18.30;11.70;;;;;;;;;;5012964;28;20452;-87
2024/01/18 01:30:17;;;;;;;15.60;11.70;;;;;;;;;;5002705;28;20479;-87
2024/01/18 01:32:45;;;;;;;15.20;10.63;;;;;;;;;;5002034;28;20472;-84
2024/01/18 01:35:12;;;;;;;18.20;11.63;;;;;;;;;;5004258;28;20459;-87
2024/01/18 01:37:39;;;;;;;20.23;11.73;;;;;;;;;;5008263;28;20449;-82
2024/01/18 01:40:07;;;;;;;16.30;11.90;;;;;;;;;;5003424;28;20484;-85
2024/01/18 01:42:35;;;;;;;20.47;12.03;;;;;;;;;;4995334;28;20456;-86
2024/01/18 01:45:02;;;;;;;17.10;10.33;;;;;;;;;;5003746;28;20471;-85
2024/01/18 01:47:29;;;;;;;20.80;13.37;;;;;;;;;;5002109;28;20495;-86
2024/01/18 01:49:57;;;;;;;15.70;10.50;;;;;;;;;;5015545;28;20547;-87
2024/01/18 01:52:25;;;;;;;15.00;11.30;;;;;;;;;;5006154;28;20551;-84
2024/01/18 01:54:52;;;;;;;13.83;10.57;;;;;;;;;;5013620;28;20482;-86
2024/01/18 01:57:21;;;;;;;16.57;11.07;;;;;;;;;;5002118;28;20448;-86
2024/01/18 01:59:48;;;;;;;15.20;11.77;;;;;;;;;;5005539;28;20543;-86
2024/01/18 02:02:17;;;;;;;21.00;12.00;;;;;;;;;;5000872;28;20466;-87
2024/01/18 02:04:44;;;;;;;20.90;12.43;;;;;;;;;;5003402;28;20449;-86
2024/01/18 02:07:12;;;;;;;15.40;11.40;;;;;;;;;;4998982;28;20471;-86
2024/01/18 02:09:42;;;;;;;18.20;11.80;;;;;;;;;;4998789;28;20975;-87
2024/01/18 02:12:10;;;;;;;14.60;11.13;;;;;;;;;;5002442;28;20453;-86
2024/01/18 02:14:37;;;;;;;17.17;10.73;;;;;;;;;;5000730;28;20483;-84
2024/01/18 02:17:06;;;;;;;14.80;10.67;;;;;;;;;;5007746;28;20451;-86
2024/01/18 02:19:33;;;;;;;18.67;11.40;;;;;;;;;;5008959;28;20467;-84
2024/01/18 02:22:02;;;;;;;17.63;12.77;;;;;;;;;;5001520;28;20444;-86
2024/01/18 02:24:33;;;;;;;16.93;11.00;;;;;;;;;;4996292;28;20470;-87
2024/01/18 02:27:00;;;;;;;15.83;11.63;;;;;;;;;;5004144;28;20439;-84
2024/01/18 02:29:27;;;;;;;17.07;11.00;;;;;;;;;;4993695;28;20471;-84
2024/01/18 02:31:56;;;;;;;18.47;10.87;;;;;;;;;;4997786;28;20452;-86
2024/01/18 02:34:23;;;;;;;19.63;13.33;;;;;;;;;;4999835;28;20479;-86
2024/01/18 02:36:54;;;;;;;18.53;11.83;;;;;;;;;;5000141;28;20452;-85
2024/01/18 02:39:22;;;;;;;15.23;11.10;;;;;;;;;;4996363;28;20504;-85
2024/01/18 02:41:49;;;;;;;18.40;11.80;;;;;;;;;;5017758;28;20457;-85
2024/01/18 02:44:16;;;;;;;17.83;11.17;;;;;;;;;;5017774;28;20480;-84
2024/01/18 02:46:43;;;;;;;15.40;11.80;;;;;;;;;;4999368;28;20471;-85
2024/01/18 02:49:11;;;;;;;13.70;10.80;;;;;;;;;;5001084;28;20483;-86
2024/01/18 02:51:38;;;;;;;20.03;12.20;;;;;;;;;;5006973;28;20452;-84
2024/01/18 02:54:05;;;;;;;14.20;11.43;;;;;;;;;;4991171;28;20485;-85
2024/01/18 02:56:34;;;;;;;15.87;12.40;;;;;;;;;;5014425;28;20514;-84
2024/01/18 02:59:02;;;;;;;17.30;11.60;;;;;;;;;;4999445;28;20484;-85
2024/01/18 03:01:29;;;;;;;22.20;13.47;;;;;;;;;;4993449;28;20447;-85
2024/01/18 03:03:56;;;;;;;16.03;10.30;;;;;;;;;;4999858;28;20559;-84
2024/01/18 03:06:23;;;;;;;16.00;12.33;;;;;;;;;;4992716;28;20508;-84
2024/01/18 03:08:51;;;;;;;16.67;11.57;;;;;;;;;;5001609;28;20526;-87
2024/01/18 03:11:20;;;;;;;17.90;11.50;;;;;;;;;;5008867;28;20511;-87
2024/01/18 03:13:48;;;;;;;19.57;12.63;;;;;;;;;;5016607;28;20481;-87
2024/01/18 03:16:15;;;;;;;14.87;10.90;;;;;;;;;;5015881;28;20482;-86
2024/01/18 03:18:46;;;;;;;15.53;12.23;;;;;;;;;;5007831;28;20539;-84
2024/01/18 03:21:13;;;;;;;14.97;10.93;;;;;;;;;;4998116;28;20470;-86
2024/01/18 03:23:40;;;;;;;13.97;11.40;;;;;;;;;;5011528;28;20495;-86
2024/01/18 03:26:08;;;;;;;16.17;12.20;;;;;;;;;;4993119;28;20456;-85
2024/01/18 03:28:35;;;;;;;14.67;11.90;;;;;;;;;;4992384;28;20475;-86
2024/01/18 03:31:02;;;;;;;16.00;11.10;;;;;;;;;;4996338;28;20463;-86
2024/01/18 03:33:29;;;;;;;15.50;11.33;;;;;;;;;;4993513;28;20494;-86
2024/01/18 03:35:57;;;;;;;14.80;11.87;;;;;;;;;;5003255;28;20479;-87
2024/01/18 03:38:24;;;;;;;14.57;10.90;;;;;;;;;;4994528;28;20463;-85
2024/01/18 03:40:51;;;;;;;15.50;11.00;;;;;;;;;;4994704;28;20474;-85
2024/01/18 03:43:19;;;;;;;15.00;11.33;;;;;;;;;;4996043;28;20452;-87
2024/01/18 03:45:47;;;;;;;15.10;11.20;;;;;;;;;;4995878;28;20462;-85
2024/01/18 03:48:14;;;;;;;13.87;10.67;;;;;;;;;;4995563;28;20451;-84
2024/01/18 03:50:42;;;;;;;16.00;12.57;;;;;;;;;;5001454;28;20476;-88
2024/01/18 03:53:09;;;;;;;13.73;10.87;;;;;;;;;;4993238;28;20507;-85
2024/01/18 03:55:36;;;;;;;14.13;11.60;;;;;;;;;;4995070;28;20558;-86
2024/01/18 03:58:03;;;;;;;17.90;11.93;;;;;;;;;;5001898;28;20458;-84
2024/01/18 04:00:31;;;;;;;17.90;12.40;;;;;;;;;;4995759;28;20472;-85
2024/01/18 04:02:59;;;;;;;19.07;13.70;;;;;;;;;;4996537;28;20574;-84
2024/01/18 04:05:26;;;;;;;15.83;12.60;;;;;;;;;;4996294;28;20549;-85
2024/01/18 04:07:53;;;;;;;18.60;12.07;;;;;;;;;;4991879;28;20474;-86
2024/01/18 04:10:20;;;;;;;16.37;12.27;;;;;;;;;;4997248;28;20490;-87
2024/01/18 04:12:48;;;;;;;14.33;11.60;;;;;;;;;;5006041;28;20539;-85
2024/01/18 04:15:15;;;;;;;20.73;13.23;;;;;;;;;;4997378;28;20486;-87
2024/01/18 04:17:42;;;;;;;14.90;12.73;;;;;;;;;;4996149;28;20454;-85
2024/01/18 04:20:13;;;;;;;14.47;12.40;;;;;;;;;;5008005;28;20502;-86
2024/01/18 04:22:40;;;;;;;16.10;12.30;;;;;;;;;;4994471;28;20459;-86
2024/01/18 04:25:08;;;;;;;19.77;12.93;;;;;;;;;;5004448;28;20474;-86
2024/01/18 04:27:35;;;;;;;17.47;12.60;;;;;;;;;;5024001;28;20499;-86
2024/01/18 04:30:02;;;;;;;18.27;13.23;;;;;;;;;;5004519;28;20550;-87
2024/01/18 04:32:29;;;;;;;15.87;12.50;;;;;;;;;;4996339;28;20484;-87
2024/01/18 04:34:57;;;;;;;19.87;13.70;;;;;;;;;;5009580;28;20480;-86
2024/01/18 04:37:24;;;;;;;16.97;13.40;;;;;;;;;;4994842;28;20486;-87
2024/01/18 04:39:51;;;;;;;16.30;13.43;;;;;;;;;;4996566;28;20496;-86
2024/01/18 04:42:19;;;;;;;18.13;13.30;;;;;;;;;;4997450;28;20455;-87
2024/01/18 04:44:47;;;;;;;15.90;12.97;;;;;;;;;;4997500;28;20534;-87
2024/01/18 04:47:17;;;;;;;15.57;13.17;;;;;;;;;;4994590;28;20546;-85
2024/01/18 04:49:44;;;;;;;20.07;13.90;;;;;;;;;;4995723;28;21002;-87
2024/01/18 04:52:11;;;;;;;20.73;13.97;;;;;;;;;;4995577;28;20507;-85
2024/01/18 04:54:41;;;;;;;15.40;12.63;;;;;;;;;;4997452;28;20498;-86
2024/01/18 04:57:08;;;;;;;21.30;15.10;;;;;;;;;;4998168;28;20542;-87
2024/01/18 04:59:35;;;;;;;19.60;15.47;;;;;;;;;;4997045;28;20494;-86
2024/01/18 05:02:02;;;;;;;20.70;14.57;;;;;;;;;;4996758;28;20452;-85
2024/01/18 05:04:32;;;;;;;18.63;13.97;;;;;;;;;;4991884;28;20695;-84
2024/01/18 05:06:59;;;;;;;19.00;13.50;;;;;;;;;;4997463;28;20812;-85
2024/01/18 05:09:29;;;;;;;15.53;11.97;;;;;;;;;;4997679;28;20506;-84
2024/01/18 05:12:00;;;;;;;17.13;12.80;;;;;;;;;;4997274;28;20521;-84
2024/01/18 05:14:30;;;;;;;15.83;12.03;;;;;;;;;;5009538;28;20474;-89
2024/01/18 05:17:03;;;;;;;17.33;13.47;;;;;;;;;;5014430;28;20506;-85
2024/01/18 05:19:31;;;;;;;19.60;13.97;;;;;;;;;;5014154;28;20485;-88
2024/01/18 05:21:58;;;;;;;19.83;15.40;;;;;;;;;;5015773;28;20464;-86
2024/01/18 05:24:27;;;;;;;19.60;13.07;;;;;;;;;;5022046;28;20457;-85
2024/01/18 05:26:55;;;;;;;20.47;13.77;;;;;;;;;;5015459;28;20464;-84
2024/01/18 05:29:22;;;;;;;21.43;13.40;;;;;;;;;;4994928;28;20566;-86
2024/01/18 05:31:49;;;;;;;19.63;13.43;;;;;;;;;;4996246;28;20448;-86
2024/01/18 05:34:18;;;;;;;19.57;13.43;;;;;;;;;;4996689;28;20502;-87
2024/01/18 05:36:47;;;;;;;20.60;14.73;;;;;;;;;;5007003;28;20448;-86
2024/01/18 05:39:17;;;;;;;21.13;14.60;;;;;;;;;;4986625;28;20486;-86
2024/01/18 05:41:47;;;;;;;25.70;15.30;;;;;;;;;;4992109;28;20469;-86
2024/01/18 05:44:14;;;;;;;19.37;14.50;;;;;;;;;;4993832;28;20467;-86
2024/01/18 05:46:42;;;;;;;20.57;14.07;;;;;;;;;;4997431;28;21228;-86
2024/01/18 05:49:09;;;;;;;17.60;14.47;;;;;;;;;;4996496;28;20501;-84
2024/01/18 05:51:36;;;;;;;17.97;15.20;;;;;;;;;;5004226;28;20876;-85
2024/01/18 05:54:08;;;;;;;22.60;15.00;;;;;;;;;;4985721;28;20511;-87
2024/01/18 05:56:36;;;;;;;19.27;13.93;;;;;;;;;;5004611;28;21010;-87
2024/01/18 05:59:03;;;;;;;22.63;15.40;;;;;;;;;;5000900;28;20519;-86
2024/01/18 06:01:31;;;;;;;20.63;14.37;;;;;;;;;;5000417;28;20451;-85
2024/01/18 06:03:59;;;;;;;20.53;15.10;;;;;;;;;;4994402;28;20864;-84
2024/01/18 06:06:26;;;;;;;19.37;14.77;;;;;;;;;;5003727;28;20542;-89
2024/01/18 06:08:53;;;;;;;20.70;16.27;;;;;;;;;;5020311;28;20488;-88
2024/01/18 06:11:23;;;;;;;21.60;14.13;;;;;;;;;;5018985;28;20449;-89
2024/01/18 06:13:50;;;;;;;20.27;15.13;;;;;;;;;;5022698;28;20445;-86
2024/01/18 06:16:19;;;;;;;20.30;15.23;;;;;;;;;;4999310;28;20456;-85
2024/01/18 06:18:50;;;;;;;22.13;14.30;;;;;;;;;;5013721;28;20469;-86
2024/01/18 06:21:21;;;;;;;19.33;14.50;;;;;;;;;;5003911;28;20478;-86
2024/01/18 06:23:49;;;;;;;19.60;15.00;;;;;;;;;;5003131;28;20447;-86
2024/01/18 06:26:19;;;;;;;22.77;16.67;;;;;;;;;;4999973;28;21557;-86
2024/01/18 06:28:46;;;;;;;21.43;15.53;;;;;;;;;;4994317;28;20494;-87
2024/01/18 06:31:14;;;;;;;18.60;13.30;;;;;;;;;;4995582;28;20461;-86
2024/01/18 06:33:42;;;;;;;21.67;14.67;;;;;;;;;;5005571;28;20883;-86
2024/01/18 06:36:11;;;;;;;17.30;13.73;;;;;;;;;;5005303;28;20493;-86
2024/01/18 06:38:38;;;;;;;20.20;14.20;;;;;;;;;;4999041;28;20450;-86
2024/01/18 06:41:12;;;;;;;18.27;15.50;;;;;;;;;;4996181;28;20491;-86
2024/01/18 06:43:40;;;;;;;22.17;15.57;;;;;;;;;;4999365;28;20444;-87
2024/01/18 06:46:17;;;;;;;18.63;15.00;;;;;;;;;;5004942;28;20461;-85
2024/01/18 06:48:51;;;;;;;19.60;14.97;;;;;;;;;;4996347;28;20478;-87
2024/01/18 06:51:18;;;;;;;20.70;15.07;;;;;;;;;;4996233;28;20467;-87
2024/01/18 06:53:46;;;;;;;20.40;14.30;;;;;;;;;;4997322;28;20943;-86
2024/01/18 06:56:15;;;;;;;20.37;15.50;;;;;;;;;;4994823;28;20574;-86
2024/01/18 06:58:43;;;;;;;19.40;14.27;;;;;;;;;;5002872;28;20482;-86
2024/01/18 07:01:12;;;;;;;20.47;15.37;;;;;;;;;;5009382;28;20490;-87
2024/01/18 07:03:41;;;;;;;20.10;14.50;;;;;;;;;;5004932;28;20459;-86
2024/01/18 07:06:09;;;;;;;21.70;14.37;;;;;;;;;;5015581;28;20459;-85
2024/01/18 07:08:39;;;;;;;23.87;15.17;;;;;;;;;;4997064;28;20491;-86
2024/01/18 07:11:06;;;;;;;22.30;15.30;;;;;;;;;;4998314;28;20494;-86
2024/01/18 07:13:34;;;;;;;18.90;14.77;;;;;;;;;;4999987;28;20464;-86
2024/01/18 07:16:04;;;;;;;16.83;14.20;;;;;;;;;;5005064;28;20482;-86
2024/01/18 07:18:31;;;;;;;19.47;14.50;;;;;;;;;;4981767;28;20452;-86
2024/01/18 07:21:01;;;;;;;23.83;16.33;;;;;;;;;;5014348;28;20475;-85
2024/01/18 07:23:29;;;;;;;22.53;15.83;;;;;;;;;;4998691;28;20459;-86
2024/01/18 07:25:59;;;;;;;18.13;13.73;;;;;;;;;;4997016;28;20454;-86
2024/01/18 07:28:26;;;;;;;21.80;16.70;;;;;;;;;;4997910;28;20570;-86
2024/01/18 07:30:53;;;;;;;20.10;14.03;;;;;;;;;;5012404;28;20483;-86
2024/01/18 07:33:21;;;;;;;22.60;15.83;;;;;;;;;;4999854;28;20512;-86
2024/01/18 07:35:48;;;;;;;22.90;15.80;;;;;;;;;;5009561;28;20915;-86
2024/01/18 07:38:16;;;;;;;17.60;13.87;;;;;;;;;;4997927;28;20440;-84
2024/01/18 07:40:45;;;;;;;16.70;14.17;;;;;;;;;;4993825;28;20524;-86
2024/01/18 07:43:15;;;;;;;17.33;14.97;;;;;;;;;;4988454;28;20466;-85
2024/01/18 07:45:45;;;;;;;21.03;15.60;;;;;;;;;;4992493;28;20452;-85
2024/01/18 07:48:12;;;;;;;19.23;14.60;;;;;;;;;;5010011;28;20474;-86
2024/01/18 07:50:40;;;;;;;19.23;14.93;;;;;;;;;;5008995;28;20498;-88
2024/01/18 07:53:07;;;;;;;18.93;14.80;;;;;;;;;;5008629;28;20463;-87
2024/01/18 07:55:34;;;;;;;22.40;15.10;;;;;;;;;;5007601;28;20479;-88
2024/01/18 07:58:10;;;;;;;20.03;14.43;;;;;;;;;;5004803;28;20488;-84
2024/01/18 08:00:37;;;;;;;22.40;14.77;;;;;;;;;;5011486;28;20459;-85
2024/01/18 08:03:04;;;;;;;20.13;15.00;;;;;;;;;;5027884;28;20447;-83
2024/01/18 08:05:31;;;;;;;22.10;15.00;;;;;;;;;;5025329;28;20485;-85
2024/01/18 08:07:59;;;;;;;18.00;14.00;;;;;;;;;;5012568;28;20516;-84
2024/01/18 08:10:26;;;;;;;22.53;14.97;;;;;;;;;;4983732;28;20605;-87
2024/01/18 08:12:56;;;;;;;20.90;15.90;;;;;;;;;;5000265;28;20486;-83
2024/01/18 08:15:23;;;;;;;21.23;15.07;;;;;;;;;;4998252;28;21450;-87
2024/01/18 08:17:50;;;;;;;22.20;15.10;;;;;;;;;;4998170;28;20490;-85
2024/01/18 08:20:18;;;;;;;19.73;14.83;;;;;;;;;;4978777;28;20468;-85
2024/01/18 08:22:45;;;;;;;17.43;13.83;;;;;;;;;;4972862;28;20453;-84
2024/01/18 08:25:12;;;;;;;21.47;15.30;;;;;;;;;;5005369;28;20541;-84
2024/01/18 08:27:40;;;;;;;23.87;17.97;;;;;;;;;;5013836;28;20443;-84
2024/01/18 08:30:07;;;;;;;23.30;15.47;;;;;;;;;;5008469;28;20481;-85
2024/01/18 08:32:35;;;;;;;21.50;16.97;;;;;;;;;;5009403;28;20866;-84
2024/01/18 08:35:03;;;;;;;22.80;14.37;;;;;;;;;;5003161;28;20483;-86
2024/01/18 08:37:30;;;;;;;23.73;14.80;;;;;;;;;;4987256;28;20459;-86
2024/01/18 08:39:58;;;;;;;20.70;14.60;;;;;;;;;;4981361;28;20495;-84
2024/01/18 08:42:25;;;;;;;20.33;14.60;;;;;;;;;;4995166;28;20530;-83
2024/01/18 08:44:53;;;;;;;21.57;13.60;;;;;;;;;;4985994;28;20509;-86
2024/01/18 08:47:32;;;;;;;19.60;15.10;;;;;;;;;;4998351;28;20464;-84
2024/01/18 08:50:09;;;;;;;18.27;14.33;;;;;;;;;;4999037;28;20483;-85
2024/01/18 08:52:37;;;;;;;20.77;15.07;;;;;;;;;;4981051;28;20463;-83
2024/01/18 08:55:05;;;;;;;24.27;16.10;;;;;;;;;;4981791;28;20493;-85
2024/01/18 08:57:32;;;;;;;19.83;15.97;;;;;;;;;;4990912;28;20528;-85
2024/01/18 08:59:59;;;;;;;22.00;16.17;;;;;;;;;;4992474;28;20484;-86
2024/01/18 09:02:27;;;;;;;19.70;15.13;;;;;;;;;;4992928;28;20530;-83
2024/01/18 09:04:55;;;;;;;22.13;16.57;;;;;;;;;;4979800;28;20535;-83
2024/01/18 09:07:23;;;;;;;24.50;16.70;;;;;;;;;;4994886;28;20451;-85
2024/01/18 09:09:53;;;;;;;26.03;15.90;;;;;;;;;;4983379;28;20478;-84
2024/01/18 09:12:20;;;;;;;21.97;15.20;;;;;;;;;;4976245;28;20572;-86
2024/01/18 09:14:48;;;;;;;22.13;16.33;;;;;;;;;;5001248;28;20463;-86
2024/01/18 09:17:15;;;;;;;24.27;17.20;;;;;;;;;;4978615;28;20554;-86
2024/01/18 09:19:43;;;;;;;23.20;16.90;;;;;;;;;;4991166;28;20471;-83
2024/01/18 09:22:10;;;;;;;29.40;15.90;;;;;;;;;;4975787;28;20475;-85
2024/01/18 09:24:42;;;;;;;18.23;14.83;;;;;;;;;;4979131;28;20442;-84
2024/01/18 09:27:12;;;;;;;23.07;15.27;;;;;;;;;;4983188;28;20445;-84
2024/01/18 09:29:39;;;;;;;27.73;16.33;;;;;;;;;;4976378;28;21856;-87
2024/01/18 09:32:07;;;;;;;22.43;15.80;;;;;;;;;;4995101;28;20575;-84
2024/01/18 09:34:34;;;;;;;22.17;16.60;;;;;;;;;;4979963;28;20580;-83
2024/01/18 09:37:02;;;;;;;19.07;16.20;;;;;;;;;;4977727;28;20572;-84
2024/01/18 09:39:30;;;;;;;25.23;16.00;;;;;;;;;;4974291;28;20495;-84
2024/01/18 09:41:57;;;;;;;19.17;16.37;;;;;;;;;;4992160;28;20608;-83
2024/01/18 09:44:30;;;;;;;23.90;17.43;;;;;;;;;;4983123;28;20439;-84
2024/01/18 09:46:57;;;;;;;24.80;19.27;;;;;;;;;;4994928;28;20456;-87
2024/01/18 09:49:25;;;;;;;27.60;18.17;;;;;;;;;;4975743;28;20523;-84
2024/01/18 09:51:55;;;;;;;23.27;18.00;;;;;;;;;;4983054;28;20511;-83
2024/01/18 09:54:22;;;;;;;23.07;16.10;;;;;;;;;;4994639;28;20468;-84
2024/01/18 09:56:53;;;;;;;20.73;16.10;;;;;;;;;;4986806;28;20550;-87
2024/01/18 09:59:22;;;;;;;20.17;16.73;;;;;;;;;;4983054;28;20487;-85
2024/01/18 10:01:50;;;;;;;19.60;15.90;;;;;;;;;;4999731;28;20461;-84
2024/01/18 10:04:21;;;;;;;21.93;17.00;;;;;;;;;;4986335;28;20521;-84
2024/01/18 10:06:49;;;;;;;20.50;16.17;;;;;;;;;;4995166;28;20587;-86
2024/01/18 10:09:16;;;;;;;22.60;17.13;;;;;;;;;;4980968;28;20483;-85
2024/01/18 10:11:45;;;;;;;23.07;18.30;;;;;;;;;;4988237;28;20483;-84
2024/01/18 10:14:13;;;;;;;21.43;16.83;;;;;;;;;;4995332;28;20486;-84
2024/01/18 10:16:41;;;;;;;21.83;17.03;;;;;;;;;;4995399;28;20968;-85
2024/01/18 10:19:14;;;;;;;23.53;17.97;;;;;;;;;;4981092;28;20529;-85
2024/01/18 10:21:43;;;;;;;20.50;17.20;;;;;;;;;;4998906;28;20460;-84
2024/01/18 10:24:12;;;;;;;23.60;18.50;;;;;;;;;;4992570;28;20455;-86
2024/01/18 10:26:40;;;;;;;27.10;18.93;;;;;;;;;;4983202;28;20480;-85
2024/01/18 10:29:12;;;;;;;22.53;17.93;;;;;;;;;;5005323;28;20466;-85
2024/01/18 10:31:42;;;;;;;24.60;18.63;;;;;;;;;;4998955;28;20455;-84
2024/01/18 10:34:10;;;;;;;28.97;21.40;;;;;;;;;;5000587;28;20448;-85
2024/01/18 10:36:37;;;;;;;22.70;17.77;;;;;;;;;;4984207;28;20472;-84
2024/01/18 10:39:16;;;;;;;24.40;19.20;;;;;;;;;;4986048;28;21765;-86
2024/01/18 10:41:45;;;;;;;27.17;18.03;;;;;;;;;;4988723;28;20519;-86
2024/01/18 10:44:14;;;;;;;25.33;18.80;;;;;;;;;;4989011;28;20463;-85
2024/01/18 10:46:42;;;;;;;20.83;18.37;;;;;;;;;;4999292;28;20498;-85
2024/01/18 10:49:10;;;;;;;29.77;19.80;;;;;;;;;;4983066;28;20517;-84
2024/01/18 10:51:40;;;;;;;21.90;19.33;;;;;;;;;;4998429;28;20553;-83
2024/01/18 10:54:10;;;;;;;24.63;18.60;;;;;;;;;;4982047;28;21033;-82
2024/01/18 10:56:47;;;;;;;27.53;18.10;;;;;;;;;;4997710;28;20487;-87
2024/01/18 10:59:14;;;;;;;25.80;17.60;;;;;;;;;;4998401;28;20499;-84
2024/01/18 11:01:42;;;;;;;23.80;18.77;;;;;;;;;;4983789;28;20486;-85
2024/01/18 11:04:11;;;;;;;20.67;16.50;;;;;;;;;;4984934;28;20509;-85
2024/01/18 11:06:38;;;;;;;22.80;17.63;;;;;;;;;;4982439;28;20477;-84
2024/01/18 11:09:06;;;;;;;23.87;18.60;;;;;;;;;;4990576;28;20497;-86
2024/01/18 11:11:33;;;;;;;28.40;18.33;;;;;;;;;;4979609;28;20550;-86
2024/01/18 11:14:01;;;;;;;30.13;19.43;;;;;;;;;;4986683;28;20522;-84
2024/01/18 11:16:28;;;;;;;26.40;17.70;;;;;;;;;;4980619;28;20470;-85
2024/01/18 11:18:58;;;;;;;26.80;19.40;;;;;;;;;;4984218;28;21175;-85
2024/01/18 11:21:40;;;;;;;21.57;16.60;;;;;;;;;;5000544;28;20474;-84
2024/01/18 11:24:10;;;;;;;25.67;18.23;;;;;;;;;;4991497;28;20541;-85
2024/01/18 11:26:38;;;;;;;26.60;17.07;;;;;;;;;;5002535;28;20517;-84
2024/01/18 11:29:19;;;;;;;21.90;16.93;;;;;;;;;;4983706;28;20490;-85
2024/01/18 11:31:57;;;;;;;26.97;18.47;;;;;;;;;;4986353;28;20453;-85
2024/01/18 11:34:27;;;;;;;24.10;15.70;;;;;;;;;;4990345;28;20464;-85
2024/01/18 11:37:08;;;;;;;19.10;15.53;;;;;;;;;;4987472;28;20473;-86
2024/01/18 11:39:48;;;;;;;20.60;15.27;;;;;;;;;;5013467;28;20525;-84
2024/01/18 11:42:23;;;;;;;23.40;16.17;;;;;;;;;;5030541;28;20497;-84
2024/01/18 11:44:56;;;;;;;18.73;14.80;;;;;;;;;;5013580;28;20434;-85
2024/01/18 11:47:24;;;;;;;24.90;16.00;;;;;;;;;;5013889;28;20459;-84
2024/01/18 11:49:52;;;;;;;21.80;15.70;;;;;;;;;;5024955;28;20472;-84
2024/01/18 11:52:21;;;;;;;28.27;22.27;;;;;;;;;;5008009;28;20824;-84
2024/01/18 11:54:55;;;;;;;27.00;15.37;;;;;;;;;;5008490;28;20468;-84
2024/01/18 11:57:24;;;;;;;22.47;17.07;;;;;;;;;;4997185;28;20555;-83
2024/01/18 12:00:10;;;;;;;22.43;16.70;;;;;;;;;;5015995;28;20551;-83
2024/01/18 12:03:07;;;;;;;22.30;17.87;;;;;;;;;;5085445;27;20591;-87
2024/01/18 12:05:35;;;;;;;21.30;16.60;;;;;;;;;;5084841;28;21422;-85
2024/01/18 12:08:05;;;;;;;22.23;15.57;;;;;;;;;;5060576;28;20454;-87
2024/01/18 12:10:34;;;;;;;20.40;16.47;;;;;;;;;;5042358;28;20478;-85
2024/01/18 12:13:01;;;;;;;22.37;16.03;;;;;;;;;;5039869;28;21197;-86
2024/01/18 12:15:52;;;;;;;22.67;15.20;;;;;;;;;;5042354;28;20466;-85
2024/01/18 12:18:23;;;;;;;21.13;15.90;;;;;;;;;;5018845;28;20980;-85
2024/01/18 12:20:50;;;;;;;22.37;17.90;;;;;;;;;;5030924;28;22162;-85
2024/01/18 12:23:17;;;;;;;22.47;16.83;;;;;;;;;;5042901;28;20730;-85
2024/01/18 12:25:45;;;;;;;23.70;18.77;;;;;;;;;;5024815;28;20445;-85
2024/01/18 12:28:12;;;;;;;19.50;14.70;;;;;;;;;;5037958;28;20457;-85
2024/01/18 12:30:43;;;;;;;23.67;17.20;;;;;;;;;;5034722;28;20452;-87
2024/01/18 12:33:10;;;;;;;22.00;14.87;;;;;;;;;;5047956;28;20559;-85
2024/01/18 12:35:38;;;;;;;18.60;14.40;;;;;;;;;;5044710;28;20460;-86
2024/01/18 12:38:06;;;;;;;21.93;14.70;;;;;;;;;;5045487;28;20452;-86
2024/01/18 12:40:34;;;;;;;17.67;13.80;;;;;;;;;;5038908;28;20483;-85
2024/01/18 12:43:02;;;;;;;17.90;13.87;;;;;;;;;;5017135;28;20548;-85
2024/01/18 12:45:31;;;;;;;19.70;13.50;;;;;;;;;;5031758;28;20524;-84
2024/01/18 12:47:58;;;;;;;21.93;13.83;;;;;;;;;;5031682;28;20770;-83
2024/01/18 12:50:25;;;;;;;18.53;12.53;;;;;;;;;;5033919;28;22510;-86
2024/01/18 12:52:53;;;;;;;15.90;12.70;;;;;;;;;;5028659;28;20459;-84
2024/01/18 12:55:20;;;;;;;17.53;12.07;;;;;;;;;;5036470;28;20760;-85
2024/01/18 12:57:48;;;;;;;14.50;11.20;;;;;;;;;;5039177;28;20450;-84
2024/01/18 13:00:15;;;;;;;19.07;10.70;;;;;;;;;;5020194;28;20464;-85
2024/01/18 13:02:43;;;;;;;16.47;10.80;;;;;;;;;;5034781;28;20483;-85
2024/01/18 13:05:17;;;;;;;12.80;10.63;;;;;;;;;;5027877;28;20458;-84
2024/01/18 13:07:45;;;;;;;15.67;10.57;;;;;;;;;;5044361;28;20482;-84
2024/01/18 13:10:13;;;;;;;18.63;11.50;;;;;;;;;;5027202;28;20481;-85
2024/01/18 13:12:40;;;;;;;17.10;11.23;;;;;;;;;;5032437;28;20454;-84
2024/01/18 13:15:08;;;;;;;15.67;12.97;;;;;;;;;;5022986;28;20458;-84
2024/01/18 13:17:39;;;;;;;15.93;13.53;;;;;;;;;;5027639;28;20553;-85
2024/01/18 13:20:10;;;;;;;16.77;13.67;;;;;;;;;;5024351;28;20503;-85
2024/01/18 13:22:38;;;;;;;19.73;13.17;;;;;;;;;;5020260;28;20476;-86
2024/01/18 13:25:06;;;;;;;21.20;12.10;;;;;;;;;;5037169;28;20489;-84
2024/01/18 13:27:33;;;;;;;15.53;11.53;;;;;;;;;;5040847;28;20448;-81
2024/01/18 13:30:02;;;;;;;14.07;10.23;;;;;;;;;;5031861;28;20479;-83
2024/01/18 13:32:29;;;;;;;11.53;9.33;;;;;;;;;;5031775;28;20448;-86
2024/01/18 13:34:56;;;;;;;13.00;9.20;;;;;;;;;;5029798;28;20891;-85
2024/01/18 13:37:24;;;;;;;12.23;9.93;;;;;;;;;;5026299;28;20537;-86
2024/01/18 13:39:58;;;;;;;9.60;8.20;;;;;;;;;;5012961;28;20474;-84
2024/01/18 13:42:27;;;;;;;11.87;8.57;;;;;;;;;;5027334;28;21374;-86
2024/01/18 13:44:54;;;;;;;13.00;9.40;;;;;;;;;;5027739;28;20631;-86
2024/01/18 13:47:21;;;;;;;12.67;8.87;;;;;;;;;;5034352;28;20468;-87
2024/01/18 13:49:50;;;;;;;12.50;10.27;;;;;;;;;;5013661;28;20600;-84
2024/01/18 13:52:19;;;;;;;9.10;8.20;;;;;;;;;;5011277;28;20462;-84
2024/01/18 13:54:47;;;;;;;12.13;9.40;;;;;;;;;;5029130;28;20488;-86
2024/01/18 13:57:14;;;;;;;11.33;9.23;;;;;;;;;;5016929;28;20580;-84
2024/01/18 13:59:41;;;;;;;11.57;9.60;;;;;;;;;;5029196;28;20487;-85
2024/01/18 14:02:10;;;;;;;12.87;8.90;;;;;;;;;;5037360;28;20569;-85
2024/01/18 14:04:38;;;;;;;13.63;9.10;;;;;;;;;;5040621;28;20442;-84
2024/01/18 14:07:08;;;;;;;12.07;10.17;;;;;;;;;;5039451;28;20938;-87
2024/01/18 14:09:37;;;;;;;10.93;8.73;;;;;;;;;;5010902;28;21637;-83
2024/01/18 14:12:06;;;;;;;13.57;10.03;;;;;;;;;;5008754;28;20489;-85
2024/01/18 14:14:34;;;;;;;13.10;9.43;;;;;;;;;;5018950;28;20455;-84
2024/01/18 14:17:02;;;;;;;18.73;10.23;;;;;;;;;;5030315;28;20517;-84
2024/01/18 14:19:30;;;;;;;15.00;11.00;;;;;;;;;;5030209;28;20493;-85
2024/01/18 14:21:58;;;;;;;15.80;10.67;;;;;;;;;;5027510;28;20470;-86
2024/01/18 14:24:25;;;;;;;12.37;10.37;;;;;;;;;;5015726;28;20462;-85
2024/01/18 14:26:53;;;;;;;15.00;11.27;;;;;;;;;;5037383;28;20461;-87